sensor_id;sensor_type;location;lat;lon;timestamp;P1;durP1;ratioP1;P2;durP2;ratioP2
42906;SDS011;28552;51.146;6.576;2022-10-16T00:00:35;1.92;;;0.65;;
42906;SDS011;28552;51.146;6.576;2022-10-16T00:03:37;5.32;;;0.80;;
42906;SDS011;28552;51.146;6.576;2022-10-16T00:06:39;3.28;;;0.80;;
42906;SDS011;28552;51.146;6.576;2022-10-16T00:09:40;3.00;;;0.50;;
42906;SDS011;28552;51.146;6.576;2022-10-16T00:12:40;1.98;;;0.70;;
42906;SDS011;28552;51.146;6.576;2022-10-16T00:15:41;5.72;;;1.15;;
42906;SDS011;28552;51.146;6.576;2022-10-16T00:18:44;2.80;;;0.80;;
42906;SDS011;28552;51.146;6.576;2022-10-16T00:21:44;3.20;;;0.75;;
42906;SDS011;28552;51.146;6.576;2022-10-16T00:24:45;1.42;;;0.50;;
42906;SDS011;28552;51.146;6.576;2022-10-16T00:27:45;2.63;;;0.57;;
42906;SDS011;28552;51.146;6.576;2022-10-16T00:30:46;2.80;;;1.05;;
42906;SDS011;28552;51.146;6.576;2022-10-16T00:33:47;2.15;;;0.75;;
42906;SDS011;28552;51.146;6.576;2022-10-16T00:36:48;2.88;;;0.80;;
42906;SDS011;28552;51.146;6.576;2022-10-16T00:39:49;1.80;;;0.73;;
42906;SDS011;28552;51.146;6.576;2022-10-16T00:42:50;1.65;;;0.52;;
42906;SDS011;28552;51.146;6.576;2022-10-16T00:45:50;2.60;;;0.88;;
42906;SDS011;28552;51.146;6.576;2022-10-16T00:48:54;3.53;;;0.60;;
42906;SDS011;28552;51.146;6.576;2022-10-16T00:52:10;3.67;;;0.70;;
42906;SDS011;28552;51.146;6.576;2022-10-16T00:55:12;2.90;;;0.70;;
42906;SDS011;28552;51.146;6.576;2022-10-16T00:58:13;1.27;;;0.60;;
42906;SDS011;28552;51.146;6.576;2022-10-16T01:01:14;1.25;;;0.50;;
42906;SDS011;28552;51.146;6.576;2022-10-16T01:04:14;2.60;;;0.80;;
42906;SDS011;28552;51.146;6.576;2022-10-16T01:10:40;2.58;;;0.70;;
42906;SDS011;28552;51.146;6.576;2022-10-16T01:13:46;1.55;;;0.68;;
42906;SDS011;28552;51.146;6.576;2022-10-16T01:16:55;1.55;;;0.68;;
42906;SDS011;28552;51.146;6.576;2022-10-16T01:20:11;5.00;;;0.80;;
42906;SDS011;28552;51.146;6.576;2022-10-16T01:26:50;2.33;;;0.70;;
42906;SDS011;28552;51.146;6.576;2022-10-16T01:30:12;2.33;;;0.80;;
42906;SDS011;28552;51.146;6.576;2022-10-16T01:33:19;1.65;;;0.75;;
42906;SDS011;28552;51.146;6.576;2022-10-16T01:36:24;2.10;;;0.70;;
42906;SDS011;28552;51.146;6.576;2022-10-16T01:39:31;1.92;;;0.80;;
42906;SDS011;28552;51.146;6.576;2022-10-16T01:42:36;1.60;;;0.70;;
42906;SDS011;28552;51.146;6.576;2022-10-16T01:45:41;2.20;;;0.70;;
42906;SDS011;28552;51.146;6.576;2022-10-16T01:48:43;2.60;;;0.90;;
42906;SDS011;28552;51.146;6.576;2022-10-16T01:51:44;2.65;;;1.02;;
42906;SDS011;28552;51.146;6.576;2022-10-16T01:54:49;1.85;;;0.75;;
42906;SDS011;28552;51.146;6.576;2022-10-16T01:57:54;3.33;;;0.80;;
42906;SDS011;28552;51.146;6.576;2022-10-16T02:00:56;2.38;;;0.75;;
42906;SDS011;28552;51.146;6.576;2022-10-16T02:03:58;1.45;;;0.57;;
42906;SDS011;28552;51.146;6.576;2022-10-16T02:07:02;2.88;;;0.50;;
42906;SDS011;28552;51.146;6.576;2022-10-16T02:10:02;1.65;;;0.70;;
42906;SDS011;28552;51.146;6.576;2022-10-16T02:13:06;1.73;;;0.65;;
42906;SDS011;28552;51.146;6.576;2022-10-16T02:16:07;2.38;;;0.60;;
42906;SDS011;28552;51.146;6.576;2022-10-16T02:19:10;2.38;;;0.80;;
42906;SDS011;28552;51.146;6.576;2022-10-16T02:22:15;2.03;;;0.73;;
42906;SDS011;28552;51.146;6.576;2022-10-16T02:25:30;3.15;;;0.60;;
42906;SDS011;28552;51.146;6.576;2022-10-16T02:28:38;3.08;;;0.65;;
42906;SDS011;28552;51.146;6.576;2022-10-16T02:31:46;2.95;;;0.95;;
42906;SDS011;28552;51.146;6.576;2022-10-16T02:34:51;1.98;;;0.80;;
42906;SDS011;28552;51.146;6.576;2022-10-16T02:37:52;1.52;;;0.80;;
42906;SDS011;28552;51.146;6.576;2022-10-16T02:40:54;2.08;;;0.70;;
42906;SDS011;28552;51.146;6.576;2022-10-16T02:43:55;1.58;;;0.70;;
42906;SDS011;28552;51.146;6.576;2022-10-16T02:46:55;1.70;;;0.80;;
42906;SDS011;28552;51.146;6.576;2022-10-16T02:49:56;2.05;;;0.80;;
42906;SDS011;28552;51.146;6.576;2022-10-16T02:52:56;1.40;;;0.63;;
42906;SDS011;28552;51.146;6.576;2022-10-16T02:55:57;2.20;;;0.70;;
42906;SDS011;28552;51.146;6.576;2022-10-16T02:58:57;2.35;;;0.80;;
42906;SDS011;28552;51.146;6.576;2022-10-16T03:01:58;2.30;;;0.95;;
42906;SDS011;28552;51.146;6.576;2022-10-16T03:04:58;1.88;;;0.60;;
42906;SDS011;28552;51.146;6.576;2022-10-16T03:07:59;1.92;;;0.73;;
42906;SDS011;28552;51.146;6.576;2022-10-16T03:11:00;1.58;;;0.73;;
42906;SDS011;28552;51.146;6.576;2022-10-16T03:14:01;1.92;;;0.80;;
42906;SDS011;28552;51.146;6.576;2022-10-16T03:17:01;3.00;;;1.00;;
42906;SDS011;28552;51.146;6.576;2022-10-16T03:20:02;1.38;;;0.52;;
42906;SDS011;28552;51.146;6.576;2022-10-16T03:23:03;2.55;;;0.70;;
42906;SDS011;28552;51.146;6.576;2022-10-16T03:26:04;2.15;;;0.70;;
42906;SDS011;28552;51.146;6.576;2022-10-16T03:29:04;2.40;;;0.98;;
42906;SDS011;28552;51.146;6.576;2022-10-16T03:32:05;1.63;;;0.63;;
42906;SDS011;28552;51.146;6.576;2022-10-16T03:35:05;2.15;;;0.80;;
42906;SDS011;28552;51.146;6.576;2022-10-16T03:38:06;1.67;;;0.80;;
42906;SDS011;28552;51.146;6.576;2022-10-16T03:41:07;1.33;;;0.55;;
42906;SDS011;28552;51.146;6.576;2022-10-16T03:44:07;1.65;;;0.70;;
42906;SDS011;28552;51.146;6.576;2022-10-16T03:47:08;2.90;;;0.80;;
42906;SDS011;28552;51.146;6.576;2022-10-16T03:50:08;1.90;;;0.73;;
42906;SDS011;28552;51.146;6.576;2022-10-16T03:53:09;1.50;;;0.68;;
42906;SDS011;28552;51.146;6.576;2022-10-16T03:56:10;1.75;;;0.70;;
42906;SDS011;28552;51.146;6.576;2022-10-16T03:59:10;3.38;;;0.95;;
42906;SDS011;28552;51.146;6.576;2022-10-16T04:02:11;2.08;;;0.90;;
42906;SDS011;28552;51.146;6.576;2022-10-16T04:05:11;2.47;;;0.98;;
42906;SDS011;28552;51.146;6.576;2022-10-16T04:08:12;1.77;;;0.68;;
42906;SDS011;28552;51.146;6.576;2022-10-16T04:11:12;1.65;;;0.77;;
42906;SDS011;28552;51.146;6.576;2022-10-16T04:14:13;2.00;;;0.80;;
42906;SDS011;28552;51.146;6.576;2022-10-16T04:17:13;6.18;;;1.08;;
42906;SDS011;28552;51.146;6.576;2022-10-16T04:20:14;2.33;;;0.90;;
42906;SDS011;28552;51.146;6.576;2022-10-16T04:23:15;1.13;;;0.77;;
42906;SDS011;28552;51.146;6.576;2022-10-16T04:26:15;1.52;;;0.70;;
42906;SDS011;28552;51.146;6.576;2022-10-16T04:29:16;2.65;;;0.75;;
42906;SDS011;28552;51.146;6.576;2022-10-16T04:32:16;2.25;;;0.75;;
42906;SDS011;28552;51.146;6.576;2022-10-16T04:35:17;1.80;;;0.75;;
42906;SDS011;28552;51.146;6.576;2022-10-16T04:38:19;3.97;;;0.70;;
42906;SDS011;28552;51.146;6.576;2022-10-16T04:41:20;1.63;;;0.77;;
42906;SDS011;28552;51.146;6.576;2022-10-16T04:44:20;1.55;;;0.80;;
42906;SDS011;28552;51.146;6.576;2022-10-16T04:47:21;2.53;;;0.73;;
42906;SDS011;28552;51.146;6.576;2022-10-16T04:50:21;2.58;;;0.95;;
42906;SDS011;28552;51.146;6.576;2022-10-16T04:53:22;2.35;;;0.90;;
42906;SDS011;28552;51.146;6.576;2022-10-16T04:56:23;1.52;;;0.57;;
42906;SDS011;28552;51.146;6.576;2022-10-16T04:59:24;1.77;;;0.80;;
42906;SDS011;28552;51.146;6.576;2022-10-16T05:02:24;1.80;;;0.80;;
42906;SDS011;28552;51.146;6.576;2022-10-16T05:05:25;2.08;;;0.70;;
42906;SDS011;28552;51.146;6.576;2022-10-16T05:08:26;2.53;;;0.82;;
42906;SDS011;28552;51.146;6.576;2022-10-16T05:11:26;2.97;;;0.75;;
42906;SDS011;28552;51.146;6.576;2022-10-16T05:14:27;3.15;;;1.05;;
42906;SDS011;28552;51.146;6.576;2022-10-16T05:17:27;2.67;;;1.20;;
42906;SDS011;28552;51.146;6.576;2022-10-16T05:20:28;4.15;;;1.50;;
42906;SDS011;28552;51.146;6.576;2022-10-16T05:23:28;3.10;;;1.50;;
42906;SDS011;28552;51.146;6.576;2022-10-16T05:26:29;2.53;;;1.20;;
42906;SDS011;28552;51.146;6.576;2022-10-16T05:29:30;2.60;;;1.13;;
42906;SDS011;28552;51.146;6.576;2022-10-16T05:32:30;1.98;;;1.05;;
42906;SDS011;28552;51.146;6.576;2022-10-16T05:35:31;2.45;;;0.80;;
42906;SDS011;28552;51.146;6.576;2022-10-16T05:38:31;3.65;;;0.95;;
42906;SDS011;28552;51.146;6.576;2022-10-16T05:41:32;4.38;;;1.10;;
42906;SDS011;28552;51.146;6.576;2022-10-16T05:44:32;1.98;;;0.85;;
42906;SDS011;28552;51.146;6.576;2022-10-16T05:47:33;5.40;;;1.20;;
42906;SDS011;28552;51.146;6.576;2022-10-16T05:50:33;2.38;;;0.90;;
42906;SDS011;28552;51.146;6.576;2022-10-16T05:53:34;2.90;;;1.05;;
42906;SDS011;28552;51.146;6.576;2022-10-16T05:56:36;3.83;;;0.93;;
42906;SDS011;28552;51.146;6.576;2022-10-16T05:59:36;1.95;;;0.88;;
42906;SDS011;28552;51.146;6.576;2022-10-16T06:02:37;2.60;;;1.20;;
42906;SDS011;28552;51.146;6.576;2022-10-16T06:05:38;3.70;;;0.93;;
42906;SDS011;28552;51.146;6.576;2022-10-16T06:08:39;5.88;;;0.90;;
42906;SDS011;28552;51.146;6.576;2022-10-16T06:11:40;2.33;;;1.00;;
42906;SDS011;28552;51.146;6.576;2022-10-16T06:14:41;2.83;;;0.98;;
42906;SDS011;28552;51.146;6.576;2022-10-16T06:17:42;2.83;;;0.85;;
42906;SDS011;28552;51.146;6.576;2022-10-16T06:20:42;3.00;;;0.98;;
42906;SDS011;28552;51.146;6.576;2022-10-16T06:23:43;2.65;;;1.05;;
42906;SDS011;28552;51.146;6.576;2022-10-16T06:26:45;1.63;;;0.85;;
42906;SDS011;28552;51.146;6.576;2022-10-16T06:29:46;2.05;;;0.82;;
42906;SDS011;28552;51.146;6.576;2022-10-16T06:32:46;2.40;;;0.88;;
42906;SDS011;28552;51.146;6.576;2022-10-16T06:35:47;3.85;;;1.13;;
42906;SDS011;28552;51.146;6.576;2022-10-16T06:38:47;2.08;;;0.85;;
42906;SDS011;28552;51.146;6.576;2022-10-16T06:41:48;2.90;;;1.13;;
42906;SDS011;28552;51.146;6.576;2022-10-16T06:44:48;2.35;;;0.88;;
42906;SDS011;28552;51.146;6.576;2022-10-16T06:47:49;3.22;;;0.90;;
42906;SDS011;28552;51.146;6.576;2022-10-16T06:54:06;2.47;;;1.10;;
42906;SDS011;28552;51.146;6.576;2022-10-16T06:57:07;3.00;;;1.10;;
42906;SDS011;28552;51.146;6.576;2022-10-16T07:00:08;4.97;;;1.30;;
42906;SDS011;28552;51.146;6.576;2022-10-16T07:03:09;1.85;;;0.90;;
42906;SDS011;28552;51.146;6.576;2022-10-16T07:06:10;2.70;;;1.17;;
42906;SDS011;28552;51.146;6.576;2022-10-16T07:09:11;2.17;;;0.98;;
42906;SDS011;28552;51.146;6.576;2022-10-16T07:12:12;2.80;;;1.20;;
42906;SDS011;28552;51.146;6.576;2022-10-16T07:15:13;2.33;;;0.80;;
42906;SDS011;28552;51.146;6.576;2022-10-16T07:18:13;1.90;;;1.08;;
42906;SDS011;28552;51.146;6.576;2022-10-16T07:21:15;3.10;;;0.90;;
42906;SDS011;28552;51.146;6.576;2022-10-16T07:24:17;2.42;;;1.00;;
42906;SDS011;28552;51.146;6.576;2022-10-16T07:27:17;5.82;;;1.08;;
42906;SDS011;28552;51.146;6.576;2022-10-16T07:30:18;2.53;;;0.98;;
42906;SDS011;28552;51.146;6.576;2022-10-16T07:33:18;2.42;;;1.10;;
42906;SDS011;28552;51.146;6.576;2022-10-16T07:36:19;3.03;;;1.10;;
42906;SDS011;28552;51.146;6.576;2022-10-16T07:39:21;2.97;;;1.15;;
42906;SDS011;28552;51.146;6.576;2022-10-16T07:42:22;2.72;;;1.08;;
42906;SDS011;28552;51.146;6.576;2022-10-16T07:45:22;7.43;;;1.20;;
42906;SDS011;28552;51.146;6.576;2022-10-16T07:48:23;3.13;;;1.20;;
42906;SDS011;28552;51.146;6.576;2022-10-16T07:51:27;2.85;;;1.17;;
42906;SDS011;28552;51.146;6.576;2022-10-16T07:54:27;3.25;;;1.05;;
42906;SDS011;28552;51.146;6.576;2022-10-16T07:57:28;2.55;;;1.02;;
42906;SDS011;28552;51.146;6.576;2022-10-16T08:00:29;5.78;;;1.20;;
42906;SDS011;28552;51.146;6.576;2022-10-16T08:03:29;2.67;;;1.10;;
42906;SDS011;28552;51.146;6.576;2022-10-16T08:06:30;3.85;;;1.08;;
42906;SDS011;28552;51.146;6.576;2022-10-16T08:09:37;3.65;;;1.15;;
42906;SDS011;28552;51.146;6.576;2022-10-16T08:12:37;2.83;;;0.85;;
42906;SDS011;28552;51.146;6.576;2022-10-16T08:15:38;4.45;;;1.25;;
42906;SDS011;28552;51.146;6.576;2022-10-16T08:18:39;5.32;;;1.20;;
42906;SDS011;28552;51.146;6.576;2022-10-16T08:21:40;2.70;;;1.02;;
42906;SDS011;28552;51.146;6.576;2022-10-16T08:24:41;2.95;;;1.08;;
42906;SDS011;28552;51.146;6.576;2022-10-16T08:27:41;2.95;;;1.10;;
42906;SDS011;28552;51.146;6.576;2022-10-16T08:30:42;2.47;;;1.00;;
42906;SDS011;28552;51.146;6.576;2022-10-16T08:33:43;2.17;;;0.80;;
42906;SDS011;28552;51.146;6.576;2022-10-16T08:36:46;2.67;;;0.82;;
42906;SDS011;28552;51.146;6.576;2022-10-16T08:39:47;3.85;;;0.80;;
42906;SDS011;28552;51.146;6.576;2022-10-16T08:46:09;2.50;;;1.08;;
42906;SDS011;28552;51.146;6.576;2022-10-16T08:49:20;2.05;;;0.60;;
42906;SDS011;28552;51.146;6.576;2022-10-16T08:52:21;3.33;;;0.70;;
42906;SDS011;28552;51.146;6.576;2022-10-16T08:58:48;5.47;;;0.75;;
42906;SDS011;28552;51.146;6.576;2022-10-16T09:01:50;1.38;;;0.60;;
42906;SDS011;28552;51.146;6.576;2022-10-16T09:04:54;0.82;;;0.40;;
42906;SDS011;28552;51.146;6.576;2022-10-16T09:11:26;1.55;;;0.60;;
42906;SDS011;28552;51.146;6.576;2022-10-16T09:18:17;1.15;;;0.70;;
42906;SDS011;28552;51.146;6.576;2022-10-16T09:21:29;0.73;;;0.60;;
42906;SDS011;28552;51.146;6.576;2022-10-16T09:24:31;1.08;;;0.50;;
42906;SDS011;28552;51.146;6.576;2022-10-16T09:27:31;1.73;;;0.60;;
42906;SDS011;28552;51.146;6.576;2022-10-16T09:30:32;1.20;;;0.50;;
42906;SDS011;28552;51.146;6.576;2022-10-16T09:33:33;1.23;;;0.40;;
42906;SDS011;28552;51.146;6.576;2022-10-16T09:36:39;3.13;;;0.50;;
42906;SDS011;28552;51.146;6.576;2022-10-16T09:39:44;2.05;;;0.68;;
42906;SDS011;28552;51.146;6.576;2022-10-16T09:42:46;1.90;;;0.70;;
42906;SDS011;28552;51.146;6.576;2022-10-16T09:45:55;1.77;;;0.38;;
42906;SDS011;28552;51.146;6.576;2022-10-16T09:48:57;2.10;;;0.40;;
42906;SDS011;28552;51.146;6.576;2022-10-16T09:52:03;2.90;;;0.47;;
42906;SDS011;28552;51.146;6.576;2022-10-16T09:55:13;3.95;;;0.52;;
42906;SDS011;28552;51.146;6.576;2022-10-16T09:58:16;3.45;;;0.80;;
42906;SDS011;28552;51.146;6.576;2022-10-16T10:01:17;4.18;;;1.10;;
42906;SDS011;28552;51.146;6.576;2022-10-16T10:04:20;1.55;;;0.63;;
42906;SDS011;28552;51.146;6.576;2022-10-16T10:07:25;1.05;;;0.45;;
42906;SDS011;28552;51.146;6.576;2022-10-16T10:10:28;3.80;;;0.68;;
42906;SDS011;28552;51.146;6.576;2022-10-16T10:13:30;1.20;;;0.40;;
42906;SDS011;28552;51.146;6.576;2022-10-16T10:16:31;2.20;;;0.35;;
42906;SDS011;28552;51.146;6.576;2022-10-16T10:19:40;1.48;;;0.50;;
42906;SDS011;28552;51.146;6.576;2022-10-16T10:22:56;2.20;;;0.35;;
42906;SDS011;28552;51.146;6.576;2022-10-16T10:26:06;3.72;;;0.40;;
42906;SDS011;28552;51.146;6.576;2022-10-16T10:36:22;1.17;;;0.20;;
42906;SDS011;28552;51.146;6.576;2022-10-16T10:39:32;2.03;;;0.40;;
42906;SDS011;28552;51.146;6.576;2022-10-16T10:42:45;1.37;;;0.47;;
42906;SDS011;28552;51.146;6.576;2022-10-16T10:46:02;1.92;;;0.30;;
42906;SDS011;28552;51.146;6.576;2022-10-16T10:49:08;2.13;;;0.60;;
42906;SDS011;28552;51.146;6.576;2022-10-16T10:55:40;0.98;;;0.40;;
42906;SDS011;28552;51.146;6.576;2022-10-16T11:02:22;1.63;;;0.50;;
42906;SDS011;28552;51.146;6.576;2022-10-16T11:06:08;2.13;;;0.52;;
42906;SDS011;28552;51.146;6.576;2022-10-16T11:09:00;1.50;;;0.60;;
42906;SDS011;28552;51.146;6.576;2022-10-16T11:12:12;0.90;;;0.30;;
42906;SDS011;28552;51.146;6.576;2022-10-16T11:15:21;1.00;;;0.30;;
42906;SDS011;28552;51.146;6.576;2022-10-16T11:18:32;1.52;;;0.68;;
42906;SDS011;28552;51.146;6.576;2022-10-16T11:21:44;2.55;;;0.50;;
42906;SDS011;28552;51.146;6.576;2022-10-16T11:27:58;1.80;;;0.38;;
42906;SDS011;28552;51.146;6.576;2022-10-16T11:31:08;1.77;;;0.40;;
42906;SDS011;28552;51.146;6.576;2022-10-16T11:34:19;0.90;;;0.40;;
42906;SDS011;28552;51.146;6.576;2022-10-16T11:37:31;1.70;;;0.77;;
42906;SDS011;28552;51.146;6.576;2022-10-16T11:40:38;1.70;;;0.55;;
42906;SDS011;28552;51.146;6.576;2022-10-16T11:43:42;0.77;;;0.30;;
42906;SDS011;28552;51.146;6.576;2022-10-16T11:46:50;4.32;;;0.60;;
42906;SDS011;28552;51.146;6.576;2022-10-16T11:49:57;2.72;;;0.60;;
42906;SDS011;28552;51.146;6.576;2022-10-16T11:56:41;1.42;;;0.52;;
42906;SDS011;28552;51.146;6.576;2022-10-16T11:59:46;1.58;;;0.57;;
42906;SDS011;28552;51.146;6.576;2022-10-16T12:09:14;0.90;;;0.45;;
42906;SDS011;28552;51.146;6.576;2022-10-16T12:12:25;0.52;;;0.30;;
42906;SDS011;28552;51.146;6.576;2022-10-16T12:15:29;0.65;;;0.20;;
42906;SDS011;28552;51.146;6.576;2022-10-16T12:18:31;2.50;;;0.43;;
42906;SDS011;28552;51.146;6.576;2022-10-16T12:21:32;1.02;;;0.40;;
42906;SDS011;28552;51.146;6.576;2022-10-16T12:27:37;1.35;;;0.40;;
42906;SDS011;28552;51.146;6.576;2022-10-16T12:30:38;1.55;;;0.45;;
42906;SDS011;28552;51.146;6.576;2022-10-16T12:33:41;3.40;;;0.30;;
42906;SDS011;28552;51.146;6.576;2022-10-16T12:36:51;1.38;;;0.60;;
42906;SDS011;28552;51.146;6.576;2022-10-16T12:39:52;1.50;;;0.40;;
42906;SDS011;28552;51.146;6.576;2022-10-16T12:42:54;2.30;;;0.47;;
42906;SDS011;28552;51.146;6.576;2022-10-16T12:49:32;1.45;;;0.40;;
42906;SDS011;28552;51.146;6.576;2022-10-16T12:52:38;4.10;;;0.47;;
42906;SDS011;28552;51.146;6.576;2022-10-16T12:59:09;0.40;;;0.30;;
42906;SDS011;28552;51.146;6.576;2022-10-16T13:06:02;1.55;;;0.20;;
42906;SDS011;28552;51.146;6.576;2022-10-16T13:09:16;0.60;;;0.30;;
42906;SDS011;28552;51.146;6.576;2022-10-16T13:12:45;0.22;;;0.17;;
42906;SDS011;28552;51.146;6.576;2022-10-16T13:16:09;1.08;;;0.25;;
42906;SDS011;28552;51.146;6.576;2022-10-16T13:22:21;1.27;;;0.68;;
42906;SDS011;28552;51.146;6.576;2022-10-16T13:25:43;2.38;;;0.20;;
42906;SDS011;28552;51.146;6.576;2022-10-16T13:29:00;4.05;;;0.40;;
42906;SDS011;28552;51.146;6.576;2022-10-16T13:32:01;2.03;;;0.80;;
42906;SDS011;28552;51.146;6.576;2022-10-16T13:38:27;0.50;;;0.30;;
42906;SDS011;28552;51.146;6.576;2022-10-16T13:41:30;1.38;;;0.30;;
42906;SDS011;28552;51.146;6.576;2022-10-16T13:44:33;1.30;;;0.43;;
42906;SDS011;28552;51.146;6.576;2022-10-16T13:47:39;1.85;;;0.30;;
42906;SDS011;28552;51.146;6.576;2022-10-16T13:50:40;1.55;;;0.40;;
42906;SDS011;28552;51.146;6.576;2022-10-16T13:53:40;2.03;;;0.43;;
42906;SDS011;28552;51.146;6.576;2022-10-16T13:56:42;4.65;;;0.40;;
42906;SDS011;28552;51.146;6.576;2022-10-16T13:59:42;1.38;;;0.32;;
42906;SDS011;28552;51.146;6.576;2022-10-16T14:02:43;0.22;;;0.20;;
42906;SDS011;28552;51.146;6.576;2022-10-16T14:05:46;1.05;;;0.30;;
42906;SDS011;28552;51.146;6.576;2022-10-16T14:08:48;0.50;;;0.30;;
42906;SDS011;28552;51.146;6.576;2022-10-16T14:15:16;1.65;;;0.40;;
42906;SDS011;28552;51.146;6.576;2022-10-16T14:18:19;0.40;;;0.28;;
42906;SDS011;28552;51.146;6.576;2022-10-16T14:21:22;0.25;;;0.25;;
42906;SDS011;28552;51.146;6.576;2022-10-16T14:24:27;0.63;;;0.30;;
42906;SDS011;28552;51.146;6.576;2022-10-16T14:27:34;1.25;;;0.47;;
42906;SDS011;28552;51.146;6.576;2022-10-16T14:30:35;0.50;;;0.22;;
42906;SDS011;28552;51.146;6.576;2022-10-16T14:33:36;1.77;;;0.60;;
42906;SDS011;28552;51.146;6.576;2022-10-16T14:36:37;1.10;;;0.40;;
42906;SDS011;28552;51.146;6.576;2022-10-16T14:39:40;0.80;;;0.40;;
42906;SDS011;28552;51.146;6.576;2022-10-16T14:42:42;0.85;;;0.25;;
42906;SDS011;28552;51.146;6.576;2022-10-16T14:45:44;0.40;;;0.20;;
42906;SDS011;28552;51.146;6.576;2022-10-16T14:48:54;1.38;;;0.40;;
42906;SDS011;28552;51.146;6.576;2022-10-16T14:52:00;3.25;;;0.57;;
42906;SDS011;28552;51.146;6.576;2022-10-16T14:55:02;1.13;;;0.50;;
42906;SDS011;28552;51.146;6.576;2022-10-16T14:58:02;0.93;;;0.38;;
42906;SDS011;28552;51.146;6.576;2022-10-16T15:01:03;0.75;;;0.30;;
42906;SDS011;28552;51.146;6.576;2022-10-16T15:04:08;0.60;;;0.25;;
42906;SDS011;28552;51.146;6.576;2022-10-16T15:07:11;1.30;;;0.55;;
42906;SDS011;28552;51.146;6.576;2022-10-16T15:10:12;0.52;;;0.20;;
42906;SDS011;28552;51.146;6.576;2022-10-16T15:13:14;3.03;;;0.50;;
42906;SDS011;28552;51.146;6.576;2022-10-16T15:16:15;1.98;;;0.60;;
42906;SDS011;28552;51.146;6.576;2022-10-16T15:19:16;1.98;;;0.57;;
42906;SDS011;28552;51.146;6.576;2022-10-16T15:22:16;1.73;;;0.50;;
42906;SDS011;28552;51.146;6.576;2022-10-16T15:25:27;1.45;;;0.57;;
42906;SDS011;28552;51.146;6.576;2022-10-16T15:28:31;0.70;;;0.40;;
42906;SDS011;28552;51.146;6.576;2022-10-16T15:31:32;0.60;;;0.40;;
42906;SDS011;28552;51.146;6.576;2022-10-16T15:34:33;1.20;;;0.35;;
42906;SDS011;28552;51.146;6.576;2022-10-16T15:37:34;1.67;;;0.35;;
42906;SDS011;28552;51.146;6.576;2022-10-16T15:40:34;0.47;;;0.35;;
42906;SDS011;28552;51.146;6.576;2022-10-16T15:43:35;0.82;;;0.38;;
42906;SDS011;28552;51.146;6.576;2022-10-16T15:46:35;1.90;;;0.30;;
42906;SDS011;28552;51.146;6.576;2022-10-16T15:49:37;2.45;;;0.50;;
42906;SDS011;28552;51.146;6.576;2022-10-16T15:52:37;1.60;;;0.80;;
42906;SDS011;28552;51.146;6.576;2022-10-16T15:55:39;1.75;;;0.85;;
42906;SDS011;28552;51.146;6.576;2022-10-16T15:58:39;3.85;;;0.70;;
42906;SDS011;28552;51.146;6.576;2022-10-16T16:01:40;1.65;;;0.90;;
42906;SDS011;28552;51.146;6.576;2022-10-16T16:04:40;2.50;;;1.20;;
42906;SDS011;28552;51.146;6.576;2022-10-16T16:07:41;3.45;;;1.15;;
42906;SDS011;28552;51.146;6.576;2022-10-16T16:10:42;2.80;;;0.90;;
42906;SDS011;28552;51.146;6.576;2022-10-16T16:13:42;2.03;;;0.90;;
42906;SDS011;28552;51.146;6.576;2022-10-16T16:16:43;5.97;;;1.08;;
42906;SDS011;28552;51.146;6.576;2022-10-16T16:19:45;2.17;;;0.88;;
42906;SDS011;28552;51.146;6.576;2022-10-16T16:22:46;2.25;;;0.90;;
42906;SDS011;28552;51.146;6.576;2022-10-16T16:26:01;2.47;;;0.45;;
42906;SDS011;28552;51.146;6.576;2022-10-16T16:29:08;1.95;;;0.80;;
42906;SDS011;28552;51.146;6.576;2022-10-16T16:32:12;3.17;;;0.88;;
42906;SDS011;28552;51.146;6.576;2022-10-16T16:35:13;4.57;;;0.75;;
42906;SDS011;28552;51.146;6.576;2022-10-16T16:38:14;1.85;;;0.70;;
42906;SDS011;28552;51.146;6.576;2022-10-16T16:41:18;3.17;;;1.02;;
42906;SDS011;28552;51.146;6.576;2022-10-16T16:44:20;2.95;;;1.10;;
42906;SDS011;28552;51.146;6.576;2022-10-16T16:47:21;3.40;;;1.23;;
42906;SDS011;28552;51.146;6.576;2022-10-16T16:50:22;3.78;;;1.15;;
42906;SDS011;28552;51.146;6.576;2022-10-16T16:53:22;3.42;;;1.13;;
42906;SDS011;28552;51.146;6.576;2022-10-16T16:56:23;2.95;;;1.00;;
42906;SDS011;28552;51.146;6.576;2022-10-16T16:59:24;2.85;;;1.10;;
42906;SDS011;28552;51.146;6.576;2022-10-16T17:02:25;4.45;;;1.10;;
42906;SDS011;28552;51.146;6.576;2022-10-16T17:05:26;3.75;;;1.17;;
42906;SDS011;28552;51.146;6.576;2022-10-16T17:08:26;3.38;;;1.00;;
42906;SDS011;28552;51.146;6.576;2022-10-16T17:11:28;1.80;;;0.80;;
42906;SDS011;28552;51.146;6.576;2022-10-16T17:14:29;2.95;;;1.13;;
42906;SDS011;28552;51.146;6.576;2022-10-16T17:17:29;1.65;;;0.77;;
42906;SDS011;28552;51.146;6.576;2022-10-16T17:20:30;4.40;;;1.50;;
42906;SDS011;28552;51.146;6.576;2022-10-16T17:23:31;3.75;;;1.00;;
42906;SDS011;28552;51.146;6.576;2022-10-16T17:26:32;2.20;;;0.73;;
42906;SDS011;28552;51.146;6.576;2022-10-16T17:29:33;2.78;;;0.95;;
42906;SDS011;28552;51.146;6.576;2022-10-16T17:32:33;2.20;;;0.85;;
42906;SDS011;28552;51.146;6.576;2022-10-16T17:35:38;2.78;;;0.88;;
42906;SDS011;28552;51.146;6.576;2022-10-16T17:38:40;2.72;;;0.90;;
42906;SDS011;28552;51.146;6.576;2022-10-16T17:41:42;2.15;;;0.85;;
42906;SDS011;28552;51.146;6.576;2022-10-16T17:44:43;2.50;;;0.93;;
42906;SDS011;28552;51.146;6.576;2022-10-16T17:47:43;3.10;;;0.98;;
42906;SDS011;28552;51.146;6.576;2022-10-16T17:50:44;3.10;;;1.15;;
42906;SDS011;28552;51.146;6.576;2022-10-16T17:53:48;3.88;;;1.10;;
42906;SDS011;28552;51.146;6.576;2022-10-16T17:56:50;3.92;;;1.40;;
42906;SDS011;28552;51.146;6.576;2022-10-16T17:59:52;3.35;;;1.40;;
42906;SDS011;28552;51.146;6.576;2022-10-16T18:02:53;3.55;;;1.30;;
42906;SDS011;28552;51.146;6.576;2022-10-16T18:05:54;4.32;;;1.20;;
42906;SDS011;28552;51.146;6.576;2022-10-16T18:08:55;3.80;;;1.20;;
42906;SDS011;28552;51.146;6.576;2022-10-16T18:11:57;3.88;;;1.45;;
42906;SDS011;28552;51.146;6.576;2022-10-16T18:14:59;3.70;;;1.20;;
42906;SDS011;28552;51.146;6.576;2022-10-16T18:18:00;2.90;;;1.20;;
42906;SDS011;28552;51.146;6.576;2022-10-16T18:21:01;4.13;;;1.13;;
42906;SDS011;28552;51.146;6.576;2022-10-16T18:24:04;2.70;;;1.10;;
42906;SDS011;28552;51.146;6.576;2022-10-16T18:27:05;4.82;;;1.05;;
42906;SDS011;28552;51.146;6.576;2022-10-16T18:30:05;1.90;;;0.90;;
42906;SDS011;28552;51.146;6.576;2022-10-16T18:33:06;2.05;;;0.80;;
42906;SDS011;28552;51.146;6.576;2022-10-16T18:36:08;2.88;;;0.88;;
42906;SDS011;28552;51.146;6.576;2022-10-16T18:39:10;1.60;;;0.65;;
42906;SDS011;28552;51.146;6.576;2022-10-16T18:42:11;1.63;;;0.70;;
42906;SDS011;28552;51.146;6.576;2022-10-16T18:45:12;2.08;;;0.90;;
42906;SDS011;28552;51.146;6.576;2022-10-16T18:48:13;4.07;;;0.90;;
42906;SDS011;28552;51.146;6.576;2022-10-16T18:51:18;2.22;;;0.90;;
42906;SDS011;28552;51.146;6.576;2022-10-16T18:54:21;1.77;;;0.80;;
42906;SDS011;28552;51.146;6.576;2022-10-16T18:57:23;3.08;;;1.20;;
42906;SDS011;28552;51.146;6.576;2022-10-16T19:00:26;1.80;;;0.80;;
42906;SDS011;28552;51.146;6.576;2022-10-16T19:03:27;2.70;;;1.02;;
42906;SDS011;28552;51.146;6.576;2022-10-16T19:06:28;2.17;;;0.90;;
42906;SDS011;28552;51.146;6.576;2022-10-16T19:09:29;1.38;;;0.73;;
42906;SDS011;28552;51.146;6.576;2022-10-16T19:12:30;4.22;;;1.80;;
42906;SDS011;28552;51.146;6.576;2022-10-16T19:15:30;2.25;;;1.10;;
42906;SDS011;28552;51.146;6.576;2022-10-16T19:18:31;3.13;;;1.35;;
42906;SDS011;28552;51.146;6.576;2022-10-16T19:21:37;3.78;;;1.80;;
42906;SDS011;28552;51.146;6.576;2022-10-16T19:24:39;4.93;;;1.70;;
42906;SDS011;28552;51.146;6.576;2022-10-16T19:27:40;2.88;;;1.48;;
42906;SDS011;28552;51.146;6.576;2022-10-16T19:30:41;5.97;;;1.65;;
42906;SDS011;28552;51.146;6.576;2022-10-16T19:33:44;3.33;;;1.45;;
42906;SDS011;28552;51.146;6.576;2022-10-16T19:36:45;2.67;;;1.08;;